Terminal Aerodrome Forecast
Issued by NWS

Home | Current Version | Previous Version | Text Only | Print | Product List | Glossary On
Versions: 1 2 3 4 5 6 7 8 9 10 11 12 13 14 15
000
FTUS43 KDTX 291724
TAFMBS
TAF
KMBS 291724Z 2918/3018 34006KT 3SM -SN BR BKN022 OVC045
     FM292000 31011G19KT P6SM OVC018
     FM300100 32016G28KT P6SM -SHSN OVC024
     FM300600 32015G25KT P6SM BKN035=

USA.gov is the U.S. government's official web portal to all federal, state and local government web resources and services.